Aeroporto :
LOGIN :

Iscrizione | Disclaimer

   EN    FR    IT 

 










Sommario :    VFR   VFR Marginale   IFR   IFR Intensivo   IFR Molto Intensivo
Visibilità : 
Base nubi : 
>= 8 km
>= 3000ft
5 / 8 km
1000 / 3000 ft
1500m / 5 km
500 / 1000 ft
800 / 1500m
200 / 500 ft
< 800m
< 200 ft
Simboli :   Temporali  Nebbia  Neve Forte  Precipitazioni Forti  Vento > 20 kt
SIGMETs :   Varie  Temporali  Ghiacco  Turbolenza  Onda orograficha  Ceneri Vulcaniche






- Altitudine del aeroporto : 622 ft
- Codice IATA : BRS


EGGD - Bristol Int.

ULTIMO METAR :
  • 061050Z AUTO 25020KT 9999 BKN016 BKN023 OVC042 11/08 Q1005

METARs OBSOLETI :
  • 061020Z 25018KT 9999 FEW004 SCT008 BKN021 10/09 Q1005
  • 060950Z 25017G27KT 9999 -RA BKN003 11/10 Q1005
  • 060920Z 25014KT 9999 4000SE -RA BKN004 11/10 Q1005
  • 060850Z 23010KT 9999 -RA BKN004 10/10 Q1005
  • 060820Z AUTO 23011KT 0550 R27/P1500 DZ FG OVC002 10/10 Q1005 RERA

TAF AMD TAF EGGD
Valido dal 06 a 10 ore il 07 a 06 ore UTC


061004Z 0610/0706 21015KT 9999 BKN003
TEMPO 0610/0612 23018G28KT
BECMG 0611/0613 FEW008
BECMG 0612/0615 27018KT
TEMPO 0612/0617 7000 SHRA
PROB30
TEMPO 0612/0617 27022G32KT 4000 +SHRA BKN014
BECMG 0617/0620 26008KT
PROB30
TEMPO 0701/0706 9000 -SHRA BKN012
ATIS : +44 1275 473 666



MetMap, La meteo Aeronautica in un colpo d'occhio ! - Copyright ORBIFLY Dicembre 2007 - Disclaimer

ORBIFLY MET'MAP TEAM :

Programmazione e sviluppo : Alexandra Zaïnal
Concezione : Baudouin d'Aumeries
Aiuto per la programmazione : Marc-Olivier Méhu
Supporto tecnico e logistico : Manuel Goepfert
Aiuto per la traduzione : Arnaldo La Scala

Contatto : metmap@orbifly.com




FONTI E CREDITI :

   NOAA